sensor_id;sensor_type;location;lat;lon;timestamp;P1;durP1;ratioP1;P2;durP2;ratioP2
57401;SDS011;43226;51.110;6.998;2023-02-24T00:01:33;43.67;;;18.93;;
57401;SDS011;43226;51.110;6.998;2023-02-24T00:04:02;32.50;;;18.40;;
57401;SDS011;43226;51.110;6.998;2023-02-24T00:06:28;37.60;;;17.73;;
57401;SDS011;43226;51.110;6.998;2023-02-24T00:11:32;43.20;;;17.77;;
57401;SDS011;43226;51.110;6.998;2023-02-24T00:13:57;40.03;;;16.73;;
57401;SDS011;43226;51.110;6.998;2023-02-24T00:16:24;45.73;;;16.00;;
57401;SDS011;43226;51.110;6.998;2023-02-24T00:18:49;31.17;;;15.23;;
57401;SDS011;43226;51.110;6.998;2023-02-24T00:21:15;36.47;;;16.63;;
57401;SDS011;43226;51.110;6.998;2023-02-24T00:23:42;32.90;;;15.00;;
57401;SDS011;43226;51.110;6.998;2023-02-24T00:26:08;34.47;;;17.40;;
57401;SDS011;43226;51.110;6.998;2023-02-24T00:28:35;23.23;;;13.03;;
57401;SDS011;43226;51.110;6.998;2023-02-24T00:31:02;30.63;;;12.17;;
57401;SDS011;43226;51.110;6.998;2023-02-24T00:33:27;21.70;;;11.10;;
57401;SDS011;43226;51.110;6.998;2023-02-24T00:35:54;26.83;;;12.30;;
57401;SDS011;43226;51.110;6.998;2023-02-24T00:38:19;25.13;;;11.77;;
57401;SDS011;43226;51.110;6.998;2023-02-24T00:40:45;32.33;;;12.90;;
57401;SDS011;43226;51.110;6.998;2023-02-24T00:43:11;28.57;;;12.10;;
57401;SDS011;43226;51.110;6.998;2023-02-24T00:45:36;23.17;;;12.30;;
57401;SDS011;43226;51.110;6.998;2023-02-24T00:48:03;26.93;;;10.60;;
57401;SDS011;43226;51.110;6.998;2023-02-24T00:50:29;25.30;;;11.27;;
57401;SDS011;43226;51.110;6.998;2023-02-24T00:52:55;34.13;;;12.43;;
57401;SDS011;43226;51.110;6.998;2023-02-24T00:55:20;38.63;;;13.10;;
57401;SDS011;43226;51.110;6.998;2023-02-24T00:57:49;30.50;;;13.77;;
57401;SDS011;43226;51.110;6.998;2023-02-24T01:00:15;37.60;;;12.97;;
57401;SDS011;43226;51.110;6.998;2023-02-24T01:02:41;35.40;;;13.33;;
57401;SDS011;43226;51.110;6.998;2023-02-24T01:05:08;35.80;;;14.27;;
57401;SDS011;43226;51.110;6.998;2023-02-24T01:07:34;42.70;;;15.07;;
57401;SDS011;43226;51.110;6.998;2023-02-24T01:09:59;38.63;;;14.43;;
57401;SDS011;43226;51.110;6.998;2023-02-24T01:12:25;41.87;;;15.00;;
57401;SDS011;43226;51.110;6.998;2023-02-24T01:15:03;37.47;;;14.33;;
57401;SDS011;43226;51.110;6.998;2023-02-24T01:17:29;41.40;;;15.00;;
57401;SDS011;43226;51.110;6.998;2023-02-24T01:19:54;41.73;;;15.60;;
57401;SDS011;43226;51.110;6.998;2023-02-24T01:22:24;47.33;;;16.93;;
57401;SDS011;43226;51.110;6.998;2023-02-24T01:24:50;45.57;;;15.47;;
57401;SDS011;43226;51.110;6.998;2023-02-24T01:27:15;35.40;;;15.97;;
57401;SDS011;43226;51.110;6.998;2023-02-24T01:29:46;45.87;;;18.83;;
57401;SDS011;43226;51.110;6.998;2023-02-24T01:32:13;45.30;;;16.33;;
57401;SDS011;43226;51.110;6.998;2023-02-24T01:34:40;64.70;;;15.93;;
57401;SDS011;43226;51.110;6.998;2023-02-24T01:37:06;36.73;;;17.10;;
57401;SDS011;43226;51.110;6.998;2023-02-24T01:39:31;34.77;;;16.83;;
57401;SDS011;43226;51.110;6.998;2023-02-24T01:41:56;38.70;;;16.40;;
57401;SDS011;43226;51.110;6.998;2023-02-24T01:46:54;42.90;;;17.27;;
57401;SDS011;43226;51.110;6.998;2023-02-24T01:52:07;44.13;;;16.13;;
57401;SDS011;43226;51.110;6.998;2023-02-24T01:54:34;39.47;;;15.90;;
57401;SDS011;43226;51.110;6.998;2023-02-24T01:57:03;35.73;;;15.37;;
57401;SDS011;43226;51.110;6.998;2023-02-24T01:59:29;40.43;;;14.50;;
57401;SDS011;43226;51.110;6.998;2023-02-24T02:01:56;40.90;;;14.00;;
57401;SDS011;43226;51.110;6.998;2023-02-24T02:04:57;39.80;;;14.83;;
57401;SDS011;43226;51.110;6.998;2023-02-24T02:07:17;27.13;;;12.90;;
57401;SDS011;43226;51.110;6.998;2023-02-24T02:09:43;27.40;;;11.07;;
57401;SDS011;43226;51.110;6.998;2023-02-24T02:12:10;40.47;;;12.07;;
57401;SDS011;43226;51.110;6.998;2023-02-24T02:14:36;29.77;;;12.17;;
57401;SDS011;43226;51.110;6.998;2023-02-24T02:17:08;27.57;;;11.30;;
57401;SDS011;43226;51.110;6.998;2023-02-24T02:25:07;25.33;;;9.60;;
57401;SDS011;43226;51.110;6.998;2023-02-24T02:30:10;41.50;;;9.83;;
57401;SDS011;43226;51.110;6.998;2023-02-24T02:38:12;23.47;;;6.70;;
57401;SDS011;43226;51.110;6.998;2023-02-24T02:40:51;33.50;;;6.67;;
57401;SDS011;43226;51.110;6.998;2023-02-24T02:45:44;24.97;;;4.90;;
57401;SDS011;43226;51.110;6.998;2023-02-24T02:48:20;23.90;;;6.17;;
57401;SDS011;43226;51.110;6.998;2023-02-24T02:50:54;19.93;;;6.20;;
57401;SDS011;43226;51.110;6.998;2023-02-24T02:53:29;13.50;;;5.07;;
57401;SDS011;43226;51.110;6.998;2023-02-24T02:56:09;25.13;;;5.60;;
57401;SDS011;43226;51.110;6.998;2023-02-24T02:58:37;15.83;;;5.33;;
57401;SDS011;43226;51.110;6.998;2023-02-24T03:01:04;26.00;;;5.53;;
57401;SDS011;43226;51.110;6.998;2023-02-24T03:03:32;19.50;;;6.37;;
57401;SDS011;43226;51.110;6.998;2023-02-24T03:06:00;24.47;;;6.07;;
57401;SDS011;43226;51.110;6.998;2023-02-24T03:08:28;23.37;;;6.00;;
57401;SDS011;43226;51.110;6.998;2023-02-24T03:10:56;22.60;;;6.57;;
57401;SDS011;43226;51.110;6.998;2023-02-24T03:13:23;26.80;;;6.77;;
57401;SDS011;43226;51.110;6.998;2023-02-24T03:15:50;21.50;;;6.70;;
57401;SDS011;43226;51.110;6.998;2023-02-24T03:18:20;25.63;;;6.60;;
57401;SDS011;43226;51.110;6.998;2023-02-24T03:20:53;14.53;;;5.00;;
57401;SDS011;43226;51.110;6.998;2023-02-24T03:23:21;17.83;;;5.40;;
57401;SDS011;43226;51.110;6.998;2023-02-24T03:25:51;14.73;;;5.40;;
57401;SDS011;43226;51.110;6.998;2023-02-24T03:28:21;18.67;;;6.20;;
57401;SDS011;43226;51.110;6.998;2023-02-24T03:30:55;16.60;;;4.97;;
57401;SDS011;43226;51.110;6.998;2023-02-24T03:33:31;27.00;;;5.50;;
57401;SDS011;43226;51.110;6.998;2023-02-24T03:35:57;21.37;;;5.20;;
57401;SDS011;43226;51.110;6.998;2023-02-24T03:38:26;24.37;;;4.90;;
57401;SDS011;43226;51.110;6.998;2023-02-24T03:40:51;18.73;;;6.00;;
57401;SDS011;43226;51.110;6.998;2023-02-24T03:43:20;31.87;;;5.97;;
57401;SDS011;43226;51.110;6.998;2023-02-24T03:45:49;19.23;;;4.77;;
57401;SDS011;43226;51.110;6.998;2023-02-24T03:48:14;14.67;;;4.60;;
57401;SDS011;43226;51.110;6.998;2023-02-24T03:50:41;18.90;;;6.07;;
57401;SDS011;43226;51.110;6.998;2023-02-24T04:09:20;22.97;;;5.03;;
57401;SDS011;43226;51.110;6.998;2023-02-24T04:11:21;22.73;;;3.77;;
57401;SDS011;43226;51.110;6.998;2023-02-24T04:13:49;9.73;;;3.20;;
57401;SDS011;43226;51.110;6.998;2023-02-24T04:16:20;16.80;;;3.37;;
57401;SDS011;43226;51.110;6.998;2023-02-24T04:18:52;17.60;;;4.80;;
57401;SDS011;43226;51.110;6.998;2023-02-24T04:21:18;17.07;;;4.37;;
57401;SDS011;43226;51.110;6.998;2023-02-24T04:23:44;17.30;;;3.90;;
57401;SDS011;43226;51.110;6.998;2023-02-24T04:26:11;18.43;;;4.40;;
57401;SDS011;43226;51.110;6.998;2023-02-24T04:28:37;16.00;;;3.57;;
57401;SDS011;43226;51.110;6.998;2023-02-24T04:31:05;18.43;;;4.17;;
57401;SDS011;43226;51.110;6.998;2023-02-24T04:33:34;14.00;;;3.60;;
57401;SDS011;43226;51.110;6.998;2023-02-24T04:35:59;15.30;;;4.10;;
57401;SDS011;43226;51.110;6.998;2023-02-24T04:38:24;17.40;;;4.90;;
57401;SDS011;43226;51.110;6.998;2023-02-24T04:40:49;12.37;;;3.50;;
57401;SDS011;43226;51.110;6.998;2023-02-24T04:43:15;19.80;;;3.87;;
57401;SDS011;43226;51.110;6.998;2023-02-24T04:45:41;17.67;;;3.50;;
57401;SDS011;43226;51.110;6.998;2023-02-24T04:48:07;8.53;;;2.87;;
57401;SDS011;43226;51.110;6.998;2023-02-24T04:50:37;20.50;;;4.17;;
57401;SDS011;43226;51.110;6.998;2023-02-24T04:53:04;14.13;;;3.97;;
57401;SDS011;43226;51.110;6.998;2023-02-24T04:55:34;26.90;;;3.67;;
57401;SDS011;43226;51.110;6.998;2023-02-24T04:58:03;31.80;;;4.30;;
57401;SDS011;43226;51.110;6.998;2023-02-24T05:00:29;14.00;;;3.43;;
57401;SDS011;43226;51.110;6.998;2023-02-24T05:03:03;14.20;;;3.20;;
57401;SDS011;43226;51.110;6.998;2023-02-24T05:05:29;17.43;;;3.53;;
57401;SDS011;43226;51.110;6.998;2023-02-24T05:08:06;31.27;;;4.10;;
57401;SDS011;43226;51.110;6.998;2023-02-24T05:10:36;24.43;;;3.47;;
57401;SDS011;43226;51.110;6.998;2023-02-24T05:13:02;19.07;;;3.63;;
57401;SDS011;43226;51.110;6.998;2023-02-24T05:15:28;15.03;;;3.43;;
57401;SDS011;43226;51.110;6.998;2023-02-24T05:17:57;12.10;;;3.30;;
57401;SDS011;43226;51.110;6.998;2023-02-24T05:20:23;29.93;;;3.40;;
57401;SDS011;43226;51.110;6.998;2023-02-24T05:23:06;11.10;;;3.17;;
57401;SDS011;43226;51.110;6.998;2023-02-24T05:25:33;14.80;;;3.30;;
57401;SDS011;43226;51.110;6.998;2023-02-24T05:28:01;20.23;;;2.90;;
57401;SDS011;43226;51.110;6.998;2023-02-24T05:30:28;14.07;;;3.20;;
57401;SDS011;43226;51.110;6.998;2023-02-24T05:32:53;10.83;;;2.73;;
57401;SDS011;43226;51.110;6.998;2023-02-24T05:35:20;10.67;;;3.03;;
57401;SDS011;43226;51.110;6.998;2023-02-24T05:37:45;8.10;;;2.50;;
57401;SDS011;43226;51.110;6.998;2023-02-24T05:40:10;19.37;;;3.00;;
57401;SDS011;43226;51.110;6.998;2023-02-24T05:42:37;10.30;;;3.37;;
57401;SDS011;43226;51.110;6.998;2023-02-24T05:45:02;13.10;;;2.10;;
57401;SDS011;43226;51.110;6.998;2023-02-24T05:47:29;13.73;;;2.83;;
57401;SDS011;43226;51.110;6.998;2023-02-24T05:49:54;11.00;;;2.70;;
57401;SDS011;43226;51.110;6.998;2023-02-24T05:52:23;12.90;;;2.70;;
57401;SDS011;43226;51.110;6.998;2023-02-24T05:54:48;7.87;;;2.90;;
57401;SDS011;43226;51.110;6.998;2023-02-24T05:57:17;9.10;;;2.73;;
57401;SDS011;43226;51.110;6.998;2023-02-24T05:59:46;14.60;;;3.10;;
57401;SDS011;43226;51.110;6.998;2023-02-24T06:02:13;14.60;;;2.83;;
57401;SDS011;43226;51.110;6.998;2023-02-24T06:04:39;16.27;;;2.73;;
57401;SDS011;43226;51.110;6.998;2023-02-24T06:07:10;13.83;;;3.50;;
57401;SDS011;43226;51.110;6.998;2023-02-24T06:09:37;13.73;;;3.10;;
57401;SDS011;43226;51.110;6.998;2023-02-24T06:12:04;16.23;;;2.37;;
57401;SDS011;43226;51.110;6.998;2023-02-24T06:14:29;12.03;;;3.03;;
57401;SDS011;43226;51.110;6.998;2023-02-24T06:16:54;13.70;;;2.73;;
57401;SDS011;43226;51.110;6.998;2023-02-24T06:19:19;18.77;;;3.50;;
57401;SDS011;43226;51.110;6.998;2023-02-24T06:21:45;12.80;;;3.73;;
57401;SDS011;43226;51.110;6.998;2023-02-24T06:24:11;14.50;;;4.27;;
57401;SDS011;43226;51.110;6.998;2023-02-24T06:26:40;14.67;;;5.13;;
57401;SDS011;43226;51.110;6.998;2023-02-24T06:29:09;22.03;;;4.93;;
57401;SDS011;43226;51.110;6.998;2023-02-24T06:31:35;14.17;;;4.40;;
57401;SDS011;43226;51.110;6.998;2023-02-24T06:34:00;16.83;;;4.30;;
57401;SDS011;43226;51.110;6.998;2023-02-24T06:36:25;14.67;;;4.00;;
57401;SDS011;43226;51.110;6.998;2023-02-24T06:38:51;18.70;;;5.20;;
57401;SDS011;43226;51.110;6.998;2023-02-24T06:41:17;18.37;;;5.47;;
57401;SDS011;43226;51.110;6.998;2023-02-24T06:43:43;23.47;;;5.27;;
57401;SDS011;43226;51.110;6.998;2023-02-24T06:46:09;14.57;;;5.47;;
57401;SDS011;43226;51.110;6.998;2023-02-24T06:48:35;28.83;;;5.03;;
57401;SDS011;43226;51.110;6.998;2023-02-24T06:51:02;21.53;;;6.00;;
57401;SDS011;43226;51.110;6.998;2023-02-24T06:53:28;23.53;;;4.43;;
57401;SDS011;43226;51.110;6.998;2023-02-24T06:55:55;23.33;;;4.97;;
57401;SDS011;43226;51.110;6.998;2023-02-24T06:58:20;10.87;;;5.47;;
57401;SDS011;43226;51.110;6.998;2023-02-24T07:00:48;33.20;;;6.00;;
57401;SDS011;43226;51.110;6.998;2023-02-24T07:03:23;21.30;;;4.47;;
57401;SDS011;43226;51.110;6.998;2023-02-24T07:05:50;24.67;;;4.40;;
57401;SDS011;43226;51.110;6.998;2023-02-24T07:08:22;20.37;;;4.53;;
57401;SDS011;43226;51.110;6.998;2023-02-24T07:10:54;17.90;;;3.50;;
57401;SDS011;43226;51.110;6.998;2023-02-24T07:13:20;17.90;;;4.60;;
57401;SDS011;43226;51.110;6.998;2023-02-24T07:15:45;13.80;;;4.17;;
57401;SDS011;43226;51.110;6.998;2023-02-24T07:18:14;14.73;;;4.20;;
57401;SDS011;43226;51.110;6.998;2023-02-24T07:20:39;12.70;;;3.97;;
57401;SDS011;43226;51.110;6.998;2023-02-24T07:23:07;8.50;;;3.50;;
57401;SDS011;43226;51.110;6.998;2023-02-24T07:25:33;16.70;;;3.87;;
57401;SDS011;43226;51.110;6.998;2023-02-24T07:27:59;11.13;;;3.50;;
57401;SDS011;43226;51.110;6.998;2023-02-24T07:30:28;10.93;;;3.43;;
57401;SDS011;43226;51.110;6.998;2023-02-24T07:32:54;11.37;;;3.17;;
57401;SDS011;43226;51.110;6.998;2023-02-24T07:35:19;8.67;;;2.77;;
57401;SDS011;43226;51.110;6.998;2023-02-24T07:37:45;19.27;;;5.97;;
57401;SDS011;43226;51.110;6.998;2023-02-24T07:40:12;12.60;;;2.87;;
57401;SDS011;43226;51.110;6.998;2023-02-24T07:42:41;9.70;;;3.60;;
57401;SDS011;43226;51.110;6.998;2023-02-24T07:45:06;12.10;;;3.70;;
57401;SDS011;43226;51.110;6.998;2023-02-24T07:47:31;20.23;;;3.10;;
57401;SDS011;43226;51.110;6.998;2023-02-24T07:49:57;12.27;;;2.87;;
57401;SDS011;43226;51.110;6.998;2023-02-24T07:52:24;8.90;;;2.80;;
57401;SDS011;43226;51.110;6.998;2023-02-24T07:54:49;16.67;;;3.37;;
57401;SDS011;43226;51.110;6.998;2023-02-24T07:57:14;13.93;;;3.03;;
57401;SDS011;43226;51.110;6.998;2023-02-24T07:59:40;8.80;;;2.80;;
57401;SDS011;43226;51.110;6.998;2023-02-24T08:02:08;6.47;;;2.80;;
57401;SDS011;43226;51.110;6.998;2023-02-24T08:04:35;13.37;;;2.73;;
57401;SDS011;43226;51.110;6.998;2023-02-24T08:07:03;10.20;;;2.63;;
57401;SDS011;43226;51.110;6.998;2023-02-24T08:09:31;16.53;;;3.53;;
57401;SDS011;43226;51.110;6.998;2023-02-24T08:12:09;13.63;;;2.80;;
57401;SDS011;43226;51.110;6.998;2023-02-24T08:14:35;14.07;;;4.53;;
57401;SDS011;43226;51.110;6.998;2023-02-24T08:17:08;8.27;;;2.80;;
57401;SDS011;43226;51.110;6.998;2023-02-24T08:19:33;10.50;;;2.90;;
57401;SDS011;43226;51.110;6.998;2023-02-24T08:22:04;14.17;;;4.70;;
57401;SDS011;43226;51.110;6.998;2023-02-24T08:24:54;18.17;;;4.47;;
57401;SDS011;43226;51.110;6.998;2023-02-24T08:27:21;11.00;;;6.10;;
57401;SDS011;43226;51.110;6.998;2023-02-24T08:29:47;8.87;;;6.03;;
57401;SDS011;43226;51.110;6.998;2023-02-24T08:32:30;16.60;;;4.50;;
57401;SDS011;43226;51.110;6.998;2023-02-24T08:35:07;10.53;;;2.70;;
57401;SDS011;43226;51.110;6.998;2023-02-24T08:37:38;17.03;;;5.03;;
57401;SDS011;43226;51.110;6.998;2023-02-24T08:40:10;23.50;;;5.57;;
57401;SDS011;43226;51.110;6.998;2023-02-24T08:42:56;10.23;;;4.17;;
57401;SDS011;43226;51.110;6.998;2023-02-24T08:45:23;16.37;;;4.73;;
57401;SDS011;43226;51.110;6.998;2023-02-24T08:47:48;19.33;;;4.57;;
57401;SDS011;43226;51.110;6.998;2023-02-24T08:50:17;22.80;;;8.13;;
57401;SDS011;43226;51.110;6.998;2023-02-24T08:52:45;10.50;;;5.23;;
57401;SDS011;43226;51.110;6.998;2023-02-24T08:55:10;8.37;;;4.03;;
57401;SDS011;43226;51.110;6.998;2023-02-24T08:57:36;11.63;;;4.50;;
57401;SDS011;43226;51.110;6.998;2023-02-24T09:00:01;9.47;;;3.50;;
57401;SDS011;43226;51.110;6.998;2023-02-24T09:02:30;8.17;;;3.90;;
57401;SDS011;43226;51.110;6.998;2023-02-24T09:05:02;7.63;;;3.23;;
57401;SDS011;43226;51.110;6.998;2023-02-24T09:07:29;8.10;;;3.57;;
57401;SDS011;43226;51.110;6.998;2023-02-24T09:09:59;9.63;;;2.37;;
57401;SDS011;43226;51.110;6.998;2023-02-24T09:12:25;6.60;;;3.20;;
57401;SDS011;43226;51.110;6.998;2023-02-24T09:14:54;11.17;;;3.93;;
57401;SDS011;43226;51.110;6.998;2023-02-24T09:17:20;12.33;;;3.70;;
57401;SDS011;43226;51.110;6.998;2023-02-24T09:19:53;5.63;;;3.30;;
57401;SDS011;43226;51.110;6.998;2023-02-24T09:22:38;4.53;;;2.90;;
57401;SDS011;43226;51.110;6.998;2023-02-24T09:25:21;16.97;;;3.77;;
57401;SDS011;43226;51.110;6.998;2023-02-24T09:30:16;10.97;;;3.90;;
57401;SDS011;43226;51.110;6.998;2023-02-24T09:33:00;13.00;;;3.10;;
57401;SDS011;43226;51.110;6.998;2023-02-24T09:35:28;12.23;;;3.37;;
57401;SDS011;43226;51.110;6.998;2023-02-24T09:38:00;11.70;;;3.33;;
57401;SDS011;43226;51.110;6.998;2023-02-24T09:40:29;9.77;;;2.90;;
57401;SDS011;43226;51.110;6.998;2023-02-24T09:43:04;11.17;;;2.77;;
57401;SDS011;43226;51.110;6.998;2023-02-24T09:45:35;5.00;;;3.30;;
57401;SDS011;43226;51.110;6.998;2023-02-24T09:48:05;5.50;;;2.83;;
57401;SDS011;43226;51.110;6.998;2023-02-24T09:50:34;10.97;;;3.23;;
57401;SDS011;43226;51.110;6.998;2023-02-24T09:53:14;13.73;;;4.23;;
57401;SDS011;43226;51.110;6.998;2023-02-24T09:56:01;14.80;;;2.93;;
57401;SDS011;43226;51.110;6.998;2023-02-24T10:03:53;12.77;;;3.10;;
57401;SDS011;43226;51.110;6.998;2023-02-24T10:06:28;10.10;;;3.13;;
57401;SDS011;43226;51.110;6.998;2023-02-24T10:12:00;5.63;;;2.80;;
57401;SDS011;43226;51.110;6.998;2023-02-24T10:14:49;8.63;;;3.10;;
57401;SDS011;43226;51.110;6.998;2023-02-24T10:17:18;10.30;;;3.37;;
57401;SDS011;43226;51.110;6.998;2023-02-24T10:19:47;10.50;;;3.40;;
57401;SDS011;43226;51.110;6.998;2023-02-24T10:22:33;12.70;;;3.50;;
57401;SDS011;43226;51.110;6.998;2023-02-24T10:27:45;16.40;;;3.90;;
57401;SDS011;43226;51.110;6.998;2023-02-24T10:35:18;15.75;;;4.57;;
57401;SDS011;43226;51.110;6.998;2023-02-24T10:37:43;11.40;;;4.60;;
57401;SDS011;43226;51.110;6.998;2023-02-24T10:40:09;7.63;;;4.10;;
57401;SDS011;43226;51.110;6.998;2023-02-24T10:42:35;7.07;;;2.97;;
57401;SDS011;43226;51.110;6.998;2023-02-24T10:47:35;9.17;;;3.40;;
57401;SDS011;43226;51.110;6.998;2023-02-24T10:50:02;18.63;;;3.60;;
57401;SDS011;43226;51.110;6.998;2023-02-24T10:52:35;9.77;;;4.77;;
57401;SDS011;43226;51.110;6.998;2023-02-24T10:55:02;9.33;;;3.50;;
57401;SDS011;43226;51.110;6.998;2023-02-24T10:57:52;10.23;;;4.07;;
57401;SDS011;43226;51.110;6.998;2023-02-24T11:00:29;7.90;;;4.20;;
57401;SDS011;43226;51.110;6.998;2023-02-24T11:03:40;12.30;;;4.33;;
57401;SDS011;43226;51.110;6.998;2023-02-24T11:06:22;17.40;;;4.00;;
57401;SDS011;43226;51.110;6.998;2023-02-24T11:09:16;14.13;;;4.70;;
57401;SDS011;43226;51.110;6.998;2023-02-24T11:11:51;10.60;;;4.27;;
57401;SDS011;43226;51.110;6.998;2023-02-24T11:14:37;16.67;;;4.23;;
57401;SDS011;43226;51.110;6.998;2023-02-24T11:17:22;20.20;;;4.70;;
57401;SDS011;43226;51.110;6.998;2023-02-24T11:20:00;10.60;;;4.73;;
57401;SDS011;43226;51.110;6.998;2023-02-24T11:22:35;10.60;;;4.77;;
57401;SDS011;43226;51.110;6.998;2023-02-24T11:25:09;13.27;;;5.37;;
57401;SDS011;43226;51.110;6.998;2023-02-24T11:27:39;15.17;;;5.17;;
57401;SDS011;43226;51.110;6.998;2023-02-24T11:30:15;10.33;;;4.77;;
57401;SDS011;43226;51.110;6.998;2023-02-24T11:40:23;8.50;;;5.83;;
57401;SDS011;43226;51.110;6.998;2023-02-24T11:42:57;10.33;;;6.27;;
57401;SDS011;43226;51.110;6.998;2023-02-24T11:45:37;13.10;;;5.00;;
57401;SDS011;43226;51.110;6.998;2023-02-24T11:53:24;25.00;;;4.43;;
57401;SDS011;43226;51.110;6.998;2023-02-24T11:55:52;11.30;;;4.00;;
57401;SDS011;43226;51.110;6.998;2023-02-24T11:58:34;7.37;;;3.77;;
57401;SDS011;43226;51.110;6.998;2023-02-24T12:03:32;8.97;;;4.10;;
57401;SDS011;43226;51.110;6.998;2023-02-24T12:06:02;6.90;;;2.83;;
57401;SDS011;43226;51.110;6.998;2023-02-24T12:08:30;15.63;;;3.30;;
57401;SDS011;43226;51.110;6.998;2023-02-24T12:11:06;20.13;;;3.50;;
57401;SDS011;43226;51.110;6.998;2023-02-24T12:13:37;9.83;;;2.93;;
57401;SDS011;43226;51.110;6.998;2023-02-24T12:16:11;23.73;;;4.33;;
57401;SDS011;43226;51.110;6.998;2023-02-24T12:18:39;12.27;;;3.30;;
57401;SDS011;43226;51.110;6.998;2023-02-24T12:21:14;14.17;;;3.33;;
57401;SDS011;43226;51.110;6.998;2023-02-24T12:23:45;26.40;;;4.10;;
57401;SDS011;43226;51.110;6.998;2023-02-24T12:26:24;21.53;;;4.40;;
57401;SDS011;43226;51.110;6.998;2023-02-24T12:34:06;18.10;;;4.27;;
57401;SDS011;43226;51.110;6.998;2023-02-24T12:39:08;13.53;;;4.40;;
57401;SDS011;43226;51.110;6.998;2023-02-24T12:46:44;13.00;;;4.40;;
57401;SDS011;43226;51.110;6.998;2023-02-24T12:49:28;11.20;;;4.50;;
57401;SDS011;43226;51.110;6.998;2023-02-24T12:54:43;15.63;;;3.80;;
57401;SDS011;43226;51.110;6.998;2023-02-24T12:57:17;13.47;;;3.53;;
57401;SDS011;43226;51.110;6.998;2023-02-24T12:59:44;16.73;;;4.53;;
57401;SDS011;43226;51.110;6.998;2023-02-24T13:04:49;15.57;;;3.80;;
57401;SDS011;43226;51.110;6.998;2023-02-24T13:12:35;10.00;;;4.37;;
57401;SDS011;43226;51.110;6.998;2023-02-24T13:15:03;9.10;;;4.03;;
57401;SDS011;43226;51.110;6.998;2023-02-24T13:17:28;9.33;;;4.03;;
57401;SDS011;43226;51.110;6.998;2023-02-24T13:19:54;9.57;;;4.40;;
57401;SDS011;43226;51.110;6.998;2023-02-24T13:27:20;8.60;;;3.70;;
57401;SDS011;43226;51.110;6.998;2023-02-24T13:29:52;29.67;;;12.60;;
57401;SDS011;43226;51.110;6.998;2023-02-24T13:32:28;23.30;;;11.57;;
57401;SDS011;43226;51.110;6.998;2023-02-24T13:34:55;23.23;;;8.83;;
57401;SDS011;43226;51.110;6.998;2023-02-24T13:37:34;29.97;;;15.53;;
57401;SDS011;43226;51.110;6.998;2023-02-24T13:40:11;15.17;;;4.53;;
57401;SDS011;43226;51.110;6.998;2023-02-24T13:42:36;23.03;;;5.10;;
57401;SDS011;43226;51.110;6.998;2023-02-24T13:47:46;18.20;;;3.87;;
57401;SDS011;43226;51.110;6.998;2023-02-24T13:50:21;10.33;;;3.10;;
57401;SDS011;43226;51.110;6.998;2023-02-24T14:00:39;16.83;;;4.10;;
57401;SDS011;43226;51.110;6.998;2023-02-24T14:03:17;15.00;;;3.33;;
57401;SDS011;43226;51.110;6.998;2023-02-24T14:05:43;9.83;;;3.73;;
57401;SDS011;43226;51.110;6.998;2023-02-24T14:08:12;21.13;;;3.73;;
57401;SDS011;43226;51.110;6.998;2023-02-24T14:10:42;9.63;;;3.47;;
57401;SDS011;43226;51.110;6.998;2023-02-24T14:13:42;16.03;;;4.40;;
57401;SDS011;43226;51.110;6.998;2023-02-24T14:16:03;9.33;;;3.90;;
57401;SDS011;43226;51.110;6.998;2023-02-24T14:18:30;8.37;;;3.33;;
57401;SDS011;43226;51.110;6.998;2023-02-24T14:20:56;15.10;;;3.47;;
57401;SDS011;43226;51.110;6.998;2023-02-24T14:25:47;6.60;;;3.60;;
57401;SDS011;43226;51.110;6.998;2023-02-24T14:28:19;5.50;;;3.40;;
57401;SDS011;43226;51.110;6.998;2023-02-24T14:30:45;9.67;;;3.73;;
57401;SDS011;43226;51.110;6.998;2023-02-24T14:33:19;7.03;;;3.30;;
57401;SDS011;43226;51.110;6.998;2023-02-24T14:35:47;16.67;;;7.40;;
57401;SDS011;43226;51.110;6.998;2023-02-24T14:38:29;29.50;;;12.23;;
57401;SDS011;43226;51.110;6.998;2023-02-24T14:40:55;23.17;;;7.60;;
57401;SDS011;43226;51.110;6.998;2023-02-24T14:43:20;6.57;;;3.33;;
57401;SDS011;43226;51.110;6.998;2023-02-24T14:45:49;7.83;;;3.70;;
57401;SDS011;43226;51.110;6.998;2023-02-24T14:48:25;9.40;;;4.57;;
57401;SDS011;43226;51.110;6.998;2023-02-24T14:50:51;8.10;;;3.53;;
57401;SDS011;43226;51.110;6.998;2023-02-24T14:53:17;5.50;;;2.93;;
57401;SDS011;43226;51.110;6.998;2023-02-24T14:55:45;5.10;;;3.47;;
57401;SDS011;43226;51.110;6.998;2023-02-24T15:01:22;9.68;;;4.57;;
57401;SDS011;43226;51.110;6.998;2023-02-24T15:03:29;11.33;;;4.20;;
57401;SDS011;43226;51.110;6.998;2023-02-24T15:06:03;15.30;;;4.90;;
57401;SDS011;43226;51.110;6.998;2023-02-24T15:08:30;10.30;;;4.23;;
57401;SDS011;43226;51.110;6.998;2023-02-24T15:10:57;9.40;;;3.83;;
57401;SDS011;43226;51.110;6.998;2023-02-24T15:13:28;18.77;;;4.93;;
57401;SDS011;43226;51.110;6.998;2023-02-24T15:15:53;6.50;;;4.00;;
57401;SDS011;43226;51.110;6.998;2023-02-24T15:18:24;10.97;;;4.27;;
57401;SDS011;43226;51.110;6.998;2023-02-24T15:21:03;17.47;;;5.50;;
57401;SDS011;43226;51.110;6.998;2023-02-24T15:23:34;21.97;;;4.30;;
57401;SDS011;43226;51.110;6.998;2023-02-24T15:25:59;11.67;;;5.00;;
57401;SDS011;43226;51.110;6.998;2023-02-24T15:28:30;8.60;;;4.00;;
57401;SDS011;43226;51.110;6.998;2023-02-24T15:30:57;7.00;;;4.07;;
57401;SDS011;43226;51.110;6.998;2023-02-24T15:33:23;15.53;;;4.43;;
57401;SDS011;43226;51.110;6.998;2023-02-24T15:35:53;15.90;;;4.73;;
57401;SDS011;43226;51.110;6.998;2023-02-24T15:38:23;17.10;;;4.63;;
57401;SDS011;43226;51.110;6.998;2023-02-24T15:40:55;9.57;;;5.03;;
57401;SDS011;43226;51.110;6.998;2023-02-24T15:45:55;16.27;;;5.60;;
57401;SDS011;43226;51.110;6.998;2023-02-24T15:48:22;13.17;;;5.03;;
57401;SDS011;43226;51.110;6.998;2023-02-24T15:50:50;15.17;;;4.83;;
57401;SDS011;43226;51.110;6.998;2023-02-24T15:53:15;11.60;;;4.50;;
57401;SDS011;43226;51.110;6.998;2023-02-24T15:55:41;16.03;;;5.60;;
57401;SDS011;43226;51.110;6.998;2023-02-24T15:58:10;20.43;;;7.57;;
57401;SDS011;43226;51.110;6.998;2023-02-24T16:00:36;24.97;;;9.03;;
57401;SDS011;43226;51.110;6.998;2023-02-24T16:03:01;37.03;;;14.70;;
57401;SDS011;43226;51.110;6.998;2023-02-24T16:05:26;28.00;;;12.90;;
57401;SDS011;43226;51.110;6.998;2023-02-24T16:07:51;17.73;;;7.77;;
57401;SDS011;43226;51.110;6.998;2023-02-24T16:10:20;18.07;;;6.63;;
57401;SDS011;43226;51.110;6.998;2023-02-24T16:12:50;34.03;;;13.40;;
57401;SDS011;43226;51.110;6.998;2023-02-24T16:15:23;16.20;;;8.50;;
57401;SDS011;43226;51.110;6.998;2023-02-24T16:17:49;14.80;;;5.60;;
57401;SDS011;43226;51.110;6.998;2023-02-24T16:20:16;23.93;;;9.27;;
57401;SDS011;43226;51.110;6.998;2023-02-24T16:22:42;17.13;;;8.27;;
57401;SDS011;43226;51.110;6.998;2023-02-24T16:25:07;28.67;;;12.27;;
57401;SDS011;43226;51.110;6.998;2023-02-24T16:27:33;14.80;;;6.50;;
57401;SDS011;43226;51.110;6.998;2023-02-24T16:29:58;16.50;;;7.30;;
57401;SDS011;43226;51.110;6.998;2023-02-24T16:32:23;21.90;;;10.77;;
57401;SDS011;43226;51.110;6.998;2023-02-24T16:34:51;16.80;;;6.33;;
57401;SDS011;43226;51.110;6.998;2023-02-24T16:37:20;15.10;;;7.27;;
57401;SDS011;43226;51.110;6.998;2023-02-24T16:39:55;21.53;;;11.17;;
57401;SDS011;43226;51.110;6.998;2023-02-24T16:42:20;20.37;;;10.00;;
57401;SDS011;43226;51.110;6.998;2023-02-24T16:44:46;23.00;;;8.77;;
57401;SDS011;43226;51.110;6.998;2023-02-24T16:47:21;19.50;;;9.40;;
57401;SDS011;43226;51.110;6.998;2023-02-24T16:49:47;13.33;;;7.47;;